If you wish to contribute or participate in the discussions about articles you are invited to join SKYbrary as a registered user

Arcata Airport

From SKYbrary Wiki
KACV
Airport
ICAO: KACV
Summary
Name Arcata Airport
Region North America
Territory United States US.gif
Location Arcata, California, California
Serving Humboldt County
Coordinates 40° 58' 15.2177", -124° 6' 23.4932"
Close to North Pacific Ocean
Runways
Designator Length Width Surface ROPS
1/19 1371 m4,498.032 ft 46 m150.919 ft ASP yes/yes
14/32 1829 m6,000.656 ft 46 m150.919 ft ASP yes/yes
METAR
Observation KACV 241353Z AUTO 06003KT 8SM FEW004 08/08 A3002 RMK AO2 SLP171 T00830083
Station Arcata / Eureka, Arcata Airport
Date/Time 24 September 2017 13:53:00
Wind direction 60°
Wind speed 03 kts
Lowest cloud amount few clouds
Temperature 8.3°C
Dew point 8.3°C
Humidity 100%
QNH hPa
Weather condition n/a

WX
Tag(s) Fog

Arcata Airport, also known as Arcata/Eureka Airport, is an airport located 24 km12.959 nm
24,000 m
78,740.158 ft
north of Eureka in the unincorporated town of McKinleyville, California. This regional airport serves Humboldt County, including the two primary regional cities that compose its name: Arcata and Eureka.

Climatology

Dry-summer subtropical ”Mediterranean" climate (Köppen climate classification Csb) - characterized by warm, dry summers and mild winters.

Maps

Terrain

Loading map...

Airport Layout

Loading map...


Accidents & Serious Incidents at or in vicinity of KACV

None on SKYbrary